Terminal Aerodrome Forecast
Issued by NWS Sterling, VA

Home | Current Version | Previous Version | Text Only | Print | Product List | Glossary On
Versions: 1 2 3 4 5 6 7 8 9 10 11 12 13 14 15 16 17 18 19 20 21 22 23 24
000
FTUS41 KLWX 182327
TAFCHO
TAF
KCHO 182327Z 1900/1924 11004KT P6SM FEW250
     FM190700 16004KT P6SM BKN080
     FM191200 19005KT 2SM BR OVC025
     FM191500 19005KT 3SM -RA BR OVC010
     FM191800 20007KT 4SM BR BKN010
     FM192100 19008KT 5SM BR BKN035=

USA.gov is the U.S. government's official web portal to all federal, state and local government web resources and services.